sensor_id;sensor_type;location;lat;lon;timestamp;temperature;humidity
64858;SHT30;51335;51.148;6.950;2023-01-24T00:00:29;3.35;85.07
64858;SHT30;51335;51.148;6.950;2023-01-24T00:00:59;3.29;85.02
64858;SHT30;51335;51.148;6.950;2023-01-24T00:01:29;3.28;85.21
64858;SHT30;51335;51.148;6.950;2023-01-24T00:02:00;3.25;85.34
64858;SHT30;51335;51.148;6.950;2023-01-24T00:02:30;3.32;85.52
64858;SHT30;51335;51.148;6.950;2023-01-24T00:03:01;3.38;85.41
64858;SHT30;51335;51.148;6.950;2023-01-24T00:03:31;3.43;85.22
64858;SHT30;51335;51.148;6.950;2023-01-24T00:04:01;3.48;84.98
64858;SHT30;51335;51.148;6.950;2023-01-24T00:04:32;3.49;84.86
64858;SHT30;51335;51.148;6.950;2023-01-24T00:05:03;3.46;84.73
64858;SHT30;51335;51.148;6.950;2023-01-24T00:05:34;3.51;84.73
64858;SHT30;51335;51.148;6.950;2023-01-24T00:06:04;3.52;84.63
64858;SHT30;51335;51.148;6.950;2023-01-24T00:06:34;3.56;84.67
64858;SHT30;51335;51.148;6.950;2023-01-24T00:07:05;3.53;84.61
64858;SHT30;51335;51.148;6.950;2023-01-24T00:07:35;3.43;84.45
64858;SHT30;51335;51.148;6.950;2023-01-24T00:08:05;3.48;84.80
64858;SHT30;51335;51.148;6.950;2023-01-24T00:08:35;3.45;84.96
64858;SHT30;51335;51.148;6.950;2023-01-24T00:09:06;3.42;85.02
64858;SHT30;51335;51.148;6.950;2023-01-24T00:09:36;3.34;84.94
64858;SHT30;51335;51.148;6.950;2023-01-24T00:10:07;3.31;85.04
64858;SHT30;51335;51.148;6.950;2023-01-24T00:10:38;3.35;85.45
64858;SHT30;51335;51.148;6.950;2023-01-24T00:11:10;3.36;85.38
64858;SHT30;51335;51.148;6.950;2023-01-24T00:11:41;3.32;85.11
64858;SHT30;51335;51.148;6.950;2023-01-24T00:12:11;3.29;85.31
64858;SHT30;51335;51.148;6.950;2023-01-24T00:12:41;3.31;85.57
64858;SHT30;51335;51.148;6.950;2023-01-24T00:13:13;3.36;85.40
64858;SHT30;51335;51.148;6.950;2023-01-24T00:13:43;3.38;85.33
64858;SHT30;51335;51.148;6.950;2023-01-24T00:14:14;3.39;85.19
64858;SHT30;51335;51.148;6.950;2023-01-24T00:14:44;3.43;85.22
64858;SHT30;51335;51.148;6.950;2023-01-24T00:15:15;3.55;85.01
64858;SHT30;51335;51.148;6.950;2023-01-24T00:15:45;3.58;84.82
64858;SHT30;51335;51.148;6.950;2023-01-24T00:16:20;3.59;84.52
64858;SHT30;51335;51.148;6.950;2023-01-24T00:16:51;3.58;84.44
64858;SHT30;51335;51.148;6.950;2023-01-24T00:17:21;3.56;84.37
64858;SHT30;51335;51.148;6.950;2023-01-24T00:17:51;3.58;84.63
64858;SHT30;51335;51.148;6.950;2023-01-24T00:18:21;3.49;84.57
64858;SHT30;51335;51.148;6.950;2023-01-24T00:18:52;3.55;84.85
64858;SHT30;51335;51.148;6.950;2023-01-24T00:19:22;3.55;84.80
64858;SHT30;51335;51.148;6.950;2023-01-24T00:19:53;3.53;84.55
64858;SHT30;51335;51.148;6.950;2023-01-24T00:20:23;3.52;84.68
64858;SHT30;51335;51.148;6.950;2023-01-24T00:21:00;3.52;84.80
64858;SHT30;51335;51.148;6.950;2023-01-24T00:21:31;3.45;84.59
64858;SHT30;51335;51.148;6.950;2023-01-24T00:22:02;3.39;84.44
64858;SHT30;51335;51.148;6.950;2023-01-24T00:22:32;3.40;84.96
64858;SHT30;51335;51.148;6.950;2023-01-24T00:23:03;3.46;85.01
64858;SHT30;51335;51.148;6.950;2023-01-24T00:23:33;3.46;85.03
64858;SHT30;51335;51.148;6.950;2023-01-24T00:24:03;3.40;84.98
64858;SHT30;51335;51.148;6.950;2023-01-24T00:24:34;3.36;85.07
64858;SHT30;51335;51.148;6.950;2023-01-24T00:25:04;3.39;85.28
64858;SHT30;51335;51.148;6.950;2023-01-24T00:25:35;3.34;85.14
64858;SHT30;51335;51.148;6.950;2023-01-24T00:26:06;3.36;85.41
64858;SHT30;51335;51.148;6.950;2023-01-24T00:26:36;3.38;85.37
64858;SHT30;51335;51.148;6.950;2023-01-24T00:27:07;3.34;85.29
64858;SHT30;51335;51.148;6.950;2023-01-24T00:27:37;3.29;85.42
64858;SHT30;51335;51.148;6.950;2023-01-24T00:28:07;3.25;85.60
64858;SHT30;51335;51.148;6.950;2023-01-24T00:28:38;3.29;85.59
64858;SHT30;51335;51.148;6.950;2023-01-24T00:29:09;3.34;85.64
64858;SHT30;51335;51.148;6.950;2023-01-24T00:29:39;3.40;85.54
64858;SHT30;51335;51.148;6.950;2023-01-24T00:30:09;3.42;85.48
64858;SHT30;51335;51.148;6.950;2023-01-24T00:30:40;3.40;85.23
64858;SHT30;51335;51.148;6.950;2023-01-24T00:31:11;3.45;85.39
64858;SHT30;51335;51.148;6.950;2023-01-24T00:31:41;3.42;85.35
64858;SHT30;51335;51.148;6.950;2023-01-24T00:32:11;3.40;85.31
64858;SHT30;51335;51.148;6.950;2023-01-24T00:32:41;3.34;85.03
64858;SHT30;51335;51.148;6.950;2023-01-24T00:33:12;3.32;85.43
64858;SHT30;51335;51.148;6.950;2023-01-24T00:33:42;3.42;85.52
64858;SHT30;51335;51.148;6.950;2023-01-24T00:34:12;3.36;85.22
64858;SHT30;51335;51.148;6.950;2023-01-24T00:34:43;3.39;85.13
64858;SHT30;51335;51.148;6.950;2023-01-24T00:35:13;3.35;85.10
64858;SHT30;51335;51.148;6.950;2023-01-24T00:35:43;3.34;85.23
64858;SHT30;51335;51.148;6.950;2023-01-24T00:36:14;3.32;85.35
64858;SHT30;51335;51.148;6.950;2023-01-24T00:36:44;3.31;85.32
64858;SHT30;51335;51.148;6.950;2023-01-24T00:37:15;3.28;85.40
64858;SHT30;51335;51.148;6.950;2023-01-24T00:37:45;3.35;85.52
64858;SHT30;51335;51.148;6.950;2023-01-24T00:38:16;3.31;85.35
64858;SHT30;51335;51.148;6.950;2023-01-24T00:38:47;3.26;85.52
64858;SHT30;51335;51.148;6.950;2023-01-24T00:39:17;3.22;85.48
64858;SHT30;51335;51.148;6.950;2023-01-24T00:39:48;3.24;85.82
64858;SHT30;51335;51.148;6.950;2023-01-24T00:40:18;3.29;85.78
64858;SHT30;51335;51.148;6.950;2023-01-24T00:40:49;3.28;85.44
64858;SHT30;51335;51.148;6.950;2023-01-24T00:41:20;3.22;85.62
64858;SHT30;51335;51.148;6.950;2023-01-24T00:41:50;3.24;85.72
64858;SHT30;51335;51.148;6.950;2023-01-24T00:42:21;3.24;85.62
64858;SHT30;51335;51.148;6.950;2023-01-24T00:42:51;3.32;85.67
64858;SHT30;51335;51.148;6.950;2023-01-24T00:43:21;3.29;85.26
64858;SHT30;51335;51.148;6.950;2023-01-24T00:43:52;3.29;85.26
64858;SHT30;51335;51.148;6.950;2023-01-24T00:44:22;3.32;85.13
64858;SHT30;51335;51.148;6.950;2023-01-24T00:44:52;3.29;85.18
64858;SHT30;51335;51.148;6.950;2023-01-24T00:45:23;3.22;85.16
64858;SHT30;51335;51.148;6.950;2023-01-24T00:45:53;3.31;85.37
64858;SHT30;51335;51.148;6.950;2023-01-24T00:46:24;3.39;85.23
64858;SHT30;51335;51.148;6.950;2023-01-24T00:46:54;3.29;84.69
64858;SHT30;51335;51.148;6.950;2023-01-24T00:47:24;3.31;84.91
64858;SHT30;51335;51.148;6.950;2023-01-24T00:47:55;3.34;85.18
64858;SHT30;51335;51.148;6.950;2023-01-24T00:48:25;3.36;85.12
64858;SHT30;51335;51.148;6.950;2023-01-24T00:48:55;3.36;84.85
64858;SHT30;51335;51.148;6.950;2023-01-24T00:49:26;3.38;84.99
64858;SHT30;51335;51.148;6.950;2023-01-24T00:49:56;3.35;84.88
64858;SHT30;51335;51.148;6.950;2023-01-24T00:50:26;3.40;84.88
64858;SHT30;51335;51.148;6.950;2023-01-24T00:50:56;3.38;84.84
64858;SHT30;51335;51.148;6.950;2023-01-24T00:51:27;3.39;84.62
64858;SHT30;51335;51.148;6.950;2023-01-24T00:51:57;3.35;84.28
64858;SHT30;51335;51.148;6.950;2023-01-24T00:52:27;3.39;84.73
64858;SHT30;51335;51.148;6.950;2023-01-24T00:52:57;3.40;84.61
64858;SHT30;51335;51.148;6.950;2023-01-24T00:53:28;3.38;84.28
64858;SHT30;51335;51.148;6.950;2023-01-24T00:53:58;3.38;84.31
64858;SHT30;51335;51.148;6.950;2023-01-24T00:54:29;3.38;84.34
64858;SHT30;51335;51.148;6.950;2023-01-24T00:54:59;3.39;84.36
64858;SHT30;51335;51.148;6.950;2023-01-24T00:55:29;3.38;84.38
64858;SHT30;51335;51.148;6.950;2023-01-24T00:56:00;3.35;84.38
64858;SHT30;51335;51.148;6.950;2023-01-24T00:56:30;3.36;84.33
64858;SHT30;51335;51.148;6.950;2023-01-24T00:57:00;3.31;84.12
64858;SHT30;51335;51.148;6.950;2023-01-24T00:57:31;3.26;84.40
64858;SHT30;51335;51.148;6.950;2023-01-24T00:58:01;3.24;84.59
64858;SHT30;51335;51.148;6.950;2023-01-24T00:58:32;3.21;84.73
64858;SHT30;51335;51.148;6.950;2023-01-24T00:59:03;3.19;84.83
64858;SHT30;51335;51.148;6.950;2023-01-24T00:59:33;3.18;84.92
64858;SHT30;51335;51.148;6.950;2023-01-24T01:00:04;3.12;85.10
64858;SHT30;51335;51.148;6.950;2023-01-24T01:00:34;3.08;85.26
64858;SHT30;51335;51.148;6.950;2023-01-24T01:01:04;3.15;85.43
64858;SHT30;51335;51.148;6.950;2023-01-24T01:01:35;3.18;85.32
64858;SHT30;51335;51.148;6.950;2023-01-24T01:02:05;3.17;85.14
64858;SHT30;51335;51.148;6.950;2023-01-24T01:02:35;3.14;85.00
64858;SHT30;51335;51.148;6.950;2023-01-24T01:03:17;3.19;85.28
64858;SHT30;51335;51.148;6.950;2023-01-24T01:03:48;3.21;85.03
64858;SHT30;51335;51.148;6.950;2023-01-24T01:04:18;3.21;84.97
64858;SHT30;51335;51.148;6.950;2023-01-24T01:04:51;3.19;84.86
64858;SHT30;51335;51.148;6.950;2023-01-24T01:05:22;3.19;84.95
64858;SHT30;51335;51.148;6.950;2023-01-24T01:06:00;3.19;85.16
64858;SHT30;51335;51.148;6.950;2023-01-24T01:06:31;3.15;84.99
64858;SHT30;51335;51.148;6.950;2023-01-24T01:07:01;3.12;85.35
64858;SHT30;51335;51.148;6.950;2023-01-24T01:07:31;3.09;85.39
64858;SHT30;51335;51.148;6.950;2023-01-24T01:08:02;3.08;85.49
64858;SHT30;51335;51.148;6.950;2023-01-24T01:08:32;3.14;85.65
64858;SHT30;51335;51.148;6.950;2023-01-24T01:09:03;3.21;85.38
64858;SHT30;51335;51.148;6.950;2023-01-24T01:09:33;3.26;85.12
64858;SHT30;51335;51.148;6.950;2023-01-24T01:10:04;3.22;84.69
64858;SHT30;51335;51.148;6.950;2023-01-24T01:10:34;3.18;84.87
64858;SHT30;51335;51.148;6.950;2023-01-24T01:11:05;3.22;85.23
64858;SHT30;51335;51.148;6.950;2023-01-24T01:11:37;3.22;85.08
64858;SHT30;51335;51.148;6.950;2023-01-24T01:12:07;3.19;85.06
64858;SHT30;51335;51.148;6.950;2023-01-24T01:12:37;3.22;85.12
64858;SHT30;51335;51.148;6.950;2023-01-24T01:13:09;3.25;85.03
64858;SHT30;51335;51.148;6.950;2023-01-24T01:13:41;3.28;84.93
64858;SHT30;51335;51.148;6.950;2023-01-24T01:14:11;3.25;84.81
64858;SHT30;51335;51.148;6.950;2023-01-24T01:14:42;3.18;84.95
64858;SHT30;51335;51.148;6.950;2023-01-24T01:15:12;3.22;85.10
64858;SHT30;51335;51.148;6.950;2023-01-24T01:15:42;3.28;85.06
64858;SHT30;51335;51.148;6.950;2023-01-24T01:16:14;3.35;85.00
64858;SHT30;51335;51.148;6.950;2023-01-24T01:16:45;3.34;84.62
64858;SHT30;51335;51.148;6.950;2023-01-24T01:17:15;3.22;84.43
64858;SHT30;51335;51.148;6.950;2023-01-24T01:17:46;3.17;84.80
64858;SHT30;51335;51.148;6.950;2023-01-24T01:18:16;3.24;85.07
64858;SHT30;51335;51.148;6.950;2023-01-24T01:18:47;3.18;85.02
64858;SHT30;51335;51.148;6.950;2023-01-24T01:19:17;3.26;85.16
64858;SHT30;51335;51.148;6.950;2023-01-24T01:19:53;3.31;84.99
64858;SHT30;51335;51.148;6.950;2023-01-24T01:20:24;3.28;84.79
64858;SHT30;51335;51.148;6.950;2023-01-24T01:20:54;3.28;84.75
64858;SHT30;51335;51.148;6.950;2023-01-24T01:21:25;3.32;84.47
64858;SHT30;51335;51.148;6.950;2023-01-24T01:21:55;3.31;84.45
64858;SHT30;51335;51.148;6.950;2023-01-24T01:22:25;3.31;84.48
64858;SHT30;51335;51.148;6.950;2023-01-24T01:22:56;3.19;84.31
64858;SHT30;51335;51.148;6.950;2023-01-24T01:24:34;3.12;84.55
64858;SHT30;51335;51.148;6.950;2023-01-24T01:25:05;3.09;84.59
64858;SHT30;51335;51.148;6.950;2023-01-24T01:25:37;3.14;84.69
64858;SHT30;51335;51.148;6.950;2023-01-24T01:26:13;3.15;84.67
64858;SHT30;51335;51.148;6.950;2023-01-24T01:26:44;3.15;84.71
64858;SHT30;51335;51.148;6.950;2023-01-24T01:27:14;3.15;84.51
64858;SHT30;51335;51.148;6.950;2023-01-24T01:27:44;3.11;84.51
64858;SHT30;51335;51.148;6.950;2023-01-24T01:28:15;3.11;84.69
64858;SHT30;51335;51.148;6.950;2023-01-24T01:28:45;3.11;84.75
64858;SHT30;51335;51.148;6.950;2023-01-24T01:29:16;3.14;84.82
64858;SHT30;51335;51.148;6.950;2023-01-24T01:29:46;3.19;84.74
64858;SHT30;51335;51.148;6.950;2023-01-24T01:30:16;3.17;84.45
64858;SHT30;51335;51.148;6.950;2023-01-24T01:30:56;3.22;84.45
64858;SHT30;51335;51.148;6.950;2023-01-24T01:31:26;3.24;84.42
64858;SHT30;51335;51.148;6.950;2023-01-24T01:31:56;3.19;84.30
64858;SHT30;51335;51.148;6.950;2023-01-24T01:32:27;3.25;84.34
64858;SHT30;51335;51.148;6.950;2023-01-24T01:32:57;3.22;84.32
64858;SHT30;51335;51.148;6.950;2023-01-24T01:33:27;3.15;84.22
64858;SHT30;51335;51.148;6.950;2023-01-24T01:33:58;3.11;84.51
64858;SHT30;51335;51.148;6.950;2023-01-24T01:34:28;3.15;84.57
64858;SHT30;51335;51.148;6.950;2023-01-24T01:34:58;3.17;84.41
64858;SHT30;51335;51.148;6.950;2023-01-24T01:35:29;3.14;84.30
64858;SHT30;51335;51.148;6.950;2023-01-24T01:35:59;3.19;84.34
64858;SHT30;51335;51.148;6.950;2023-01-24T01:36:29;3.18;84.36
64858;SHT30;51335;51.148;6.950;2023-01-24T01:36:59;3.22;84.28
64858;SHT30;51335;51.148;6.950;2023-01-24T01:37:30;3.22;84.29
64858;SHT30;51335;51.148;6.950;2023-01-24T01:38:00;3.19;84.16
64858;SHT30;51335;51.148;6.950;2023-01-24T01:38:31;3.19;84.15
64858;SHT30;51335;51.148;6.950;2023-01-24T01:39:01;3.18;84.01
64858;SHT30;51335;51.148;6.950;2023-01-24T01:39:31;3.18;83.97
64858;SHT30;51335;51.148;6.950;2023-01-24T01:40:02;3.12;83.97
64858;SHT30;51335;51.148;6.950;2023-01-24T01:40:33;3.11;84.05
64858;SHT30;51335;51.148;6.950;2023-01-24T01:41:03;3.05;84.16
64858;SHT30;51335;51.148;6.950;2023-01-24T01:41:33;3.03;84.37
64858;SHT30;51335;51.148;6.950;2023-01-24T01:42:04;3.04;84.67
64858;SHT30;51335;51.148;6.950;2023-01-24T01:43:19;3.00;84.59
64858;SHT30;51335;51.148;6.950;2023-01-24T01:43:50;3.08;84.79
64858;SHT30;51335;51.148;6.950;2023-01-24T01:44:30;3.04;84.40
64858;SHT30;51335;51.148;6.950;2023-01-24T01:45:29;3.14;84.36
64858;SHT30;51335;51.148;6.950;2023-01-24T01:46:21;3.09;84.25
64858;SHT30;51335;51.148;6.950;2023-01-24T01:46:54;3.07;84.30
64858;SHT30;51335;51.148;6.950;2023-01-24T01:47:32;3.03;84.59
64858;SHT30;51335;51.148;6.950;2023-01-24T01:49:04;2.94;85.06
64858;SHT30;51335;51.148;6.950;2023-01-24T01:49:35;2.97;85.23
64858;SHT30;51335;51.148;6.950;2023-01-24T01:51:48;2.90;85.27
64858;SHT30;51335;51.148;6.950;2023-01-24T01:52:21;2.96;85.19
64858;SHT30;51335;51.148;6.950;2023-01-24T01:52:53;2.97;85.09
64858;SHT30;51335;51.148;6.950;2023-01-24T01:53:26;3.04;84.90
64858;SHT30;51335;51.148;6.950;2023-01-24T01:54:34;3.09;84.45
64858;SHT30;51335;51.148;6.950;2023-01-24T01:55:15;3.04;84.54
64858;SHT30;51335;51.148;6.950;2023-01-24T01:55:50;2.98;84.82
64858;SHT30;51335;51.148;6.950;2023-01-24T01:56:27;3.01;85.07
64858;SHT30;51335;51.148;6.950;2023-01-24T01:57:20;3.07;84.94
64858;SHT30;51335;51.148;6.950;2023-01-24T01:57:51;3.15;84.86
64858;SHT30;51335;51.148;6.950;2023-01-24T01:58:22;3.05;84.57
64858;SHT30;51335;51.148;6.950;2023-01-24T01:58:53;3.07;84.72
64858;SHT30;51335;51.148;6.950;2023-01-24T01:59:29;3.00;84.65
64858;SHT30;51335;51.148;6.950;2023-01-24T02:00:07;3.01;84.87
64858;SHT30;51335;51.148;6.950;2023-01-24T02:00:38;3.01;84.96
64858;SHT30;51335;51.148;6.950;2023-01-24T02:01:09;3.08;84.88
64858;SHT30;51335;51.148;6.950;2023-01-24T02:01:40;3.01;84.67
64858;SHT30;51335;51.148;6.950;2023-01-24T02:02:11;2.98;84.83
64858;SHT30;51335;51.148;6.950;2023-01-24T02:02:45;3.01;84.95
64858;SHT30;51335;51.148;6.950;2023-01-24T02:03:19;3.03;84.92
64858;SHT30;51335;51.148;6.950;2023-01-24T02:04:01;3.00;84.99
64858;SHT30;51335;51.148;6.950;2023-01-24T02:04:37;3.03;85.09
64858;SHT30;51335;51.148;6.950;2023-01-24T02:05:10;3.07;84.79
64858;SHT30;51335;51.148;6.950;2023-01-24T02:05:42;3.01;84.68
64858;SHT30;51335;51.148;6.950;2023-01-24T02:06:25;2.96;84.75
64858;SHT30;51335;51.148;6.950;2023-01-24T02:07:23;2.91;85.01
64858;SHT30;51335;51.148;6.950;2023-01-24T02:07:57;3.00;85.25
64858;SHT30;51335;51.148;6.950;2023-01-24T02:08:29;2.94;84.98
64858;SHT30;51335;51.148;6.950;2023-01-24T02:09:01;3.01;85.07
64858;SHT30;51335;51.148;6.950;2023-01-24T02:09:35;3.01;84.83
64858;SHT30;51335;51.148;6.950;2023-01-24T02:10:07;3.03;84.60
64858;SHT30;51335;51.148;6.950;2023-01-24T02:10:38;3.03;84.59
64858;SHT30;51335;51.148;6.950;2023-01-24T02:11:09;3.04;84.55
64858;SHT30;51335;51.148;6.950;2023-01-24T02:11:41;2.98;84.63
64858;SHT30;51335;51.148;6.950;2023-01-24T02:12:23;2.96;84.77
64858;SHT30;51335;51.148;6.950;2023-01-24T02:12:55;2.96;84.80
64858;SHT30;51335;51.148;6.950;2023-01-24T02:13:26;3.01;84.87
64858;SHT30;51335;51.148;6.950;2023-01-24T02:13:57;3.00;84.71
64858;SHT30;51335;51.148;6.950;2023-01-24T02:14:29;2.94;84.63
64858;SHT30;51335;51.148;6.950;2023-01-24T02:15:06;3.01;84.75
64858;SHT30;51335;51.148;6.950;2023-01-24T02:15:37;3.04;84.69
64858;SHT30;51335;51.148;6.950;2023-01-24T02:16:07;3.00;84.60
64858;SHT30;51335;51.148;6.950;2023-01-24T02:16:37;2.98;84.72
64858;SHT30;51335;51.148;6.950;2023-01-24T02:17:08;3.07;84.71
64858;SHT30;51335;51.148;6.950;2023-01-24T02:17:39;3.11;84.61
64858;SHT30;51335;51.148;6.950;2023-01-24T02:18:10;3.12;84.45
64858;SHT30;51335;51.148;6.950;2023-01-24T02:18:42;3.08;84.40
64858;SHT30;51335;51.148;6.950;2023-01-24T02:19:23;3.03;84.41
64858;SHT30;51335;51.148;6.950;2023-01-24T02:20:48;3.01;84.86
64858;SHT30;51335;51.148;6.950;2023-01-24T02:21:19;3.05;84.94
64858;SHT30;51335;51.148;6.950;2023-01-24T02:21:53;3.08;84.98
64858;SHT30;51335;51.148;6.950;2023-01-24T02:24:20;3.05;84.60
64858;SHT30;51335;51.148;6.950;2023-01-24T02:26:17;3.09;84.03
64858;SHT30;51335;51.148;6.950;2023-01-24T02:26:49;3.11;84.00
64858;SHT30;51335;51.148;6.950;2023-01-24T02:27:20;3.12;84.09
64858;SHT30;51335;51.148;6.950;2023-01-24T02:27:50;3.12;84.06
64858;SHT30;51335;51.148;6.950;2023-01-24T02:28:21;3.05;83.96
64858;SHT30;51335;51.148;6.950;2023-01-24T02:29:01;3.00;84.34
64858;SHT30;51335;51.148;6.950;2023-01-24T02:29:32;2.97;84.57
64858;SHT30;51335;51.148;6.950;2023-01-24T02:30:02;3.01;84.74
64858;SHT30;51335;51.148;6.950;2023-01-24T02:30:34;3.01;84.53
64858;SHT30;51335;51.148;6.950;2023-01-24T02:31:05;3.00;84.54
64858;SHT30;51335;51.148;6.950;2023-01-24T02:31:57;2.98;84.54
64858;SHT30;51335;51.148;6.950;2023-01-24T02:32:27;2.98;84.57
64858;SHT30;51335;51.148;6.950;2023-01-24T02:32:58;2.91;84.71
64858;SHT30;51335;51.148;6.950;2023-01-24T02:33:29;2.90;84.87
64858;SHT30;51335;51.148;6.950;2023-01-24T02:33:59;2.90;85.04
64858;SHT30;51335;51.148;6.950;2023-01-24T02:34:29;2.91;85.20
64858;SHT30;51335;51.148;6.950;2023-01-24T02:35:00;2.96;84.94
64858;SHT30;51335;51.148;6.950;2023-01-24T02:35:31;2.94;84.88
64858;SHT30;51335;51.148;6.950;2023-01-24T02:36:57;2.97;84.86
64858;SHT30;51335;51.148;6.950;2023-01-24T02:37:28;2.97;84.78
64858;SHT30;51335;51.148;6.950;2023-01-24T02:38:00;3.01;84.70
64858;SHT30;51335;51.148;6.950;2023-01-24T02:38:33;3.09;84.62
64858;SHT30;51335;51.148;6.950;2023-01-24T02:39:10;3.07;84.25
64858;SHT30;51335;51.148;6.950;2023-01-24T02:40:20;3.00;84.38
64858;SHT30;51335;51.148;6.950;2023-01-24T02:40:55;2.97;84.46
64858;SHT30;51335;51.148;6.950;2023-01-24T02:41:32;3.00;84.57
64858;SHT30;51335;51.148;6.950;2023-01-24T02:42:13;2.96;84.66
64858;SHT30;51335;51.148;6.950;2023-01-24T02:42:48;2.94;84.68
64858;SHT30;51335;51.148;6.950;2023-01-24T02:43:20;2.90;84.72
64858;SHT30;51335;51.148;6.950;2023-01-24T02:43:55;2.91;85.00
64858;SHT30;51335;51.148;6.950;2023-01-24T02:44:34;2.97;85.03
64858;SHT30;51335;51.148;6.950;2023-01-24T02:45:19;3.07;84.62
64858;SHT30;51335;51.148;6.950;2023-01-24T02:45:50;3.14;84.42
64858;SHT30;51335;51.148;6.950;2023-01-24T02:46:20;3.07;84.32
64858;SHT30;51335;51.148;6.950;2023-01-24T02:46:51;3.11;84.41
64858;SHT30;51335;51.148;6.950;2023-01-24T02:47:21;3.04;84.25
64858;SHT30;51335;51.148;6.950;2023-01-24T02:47:53;3.01;84.35
64858;SHT30;51335;51.148;6.950;2023-01-24T02:48:23;2.97;84.65
64858;SHT30;51335;51.148;6.950;2023-01-24T02:48:54;2.96;84.80
64858;SHT30;51335;51.148;6.950;2023-01-24T02:49:24;2.90;84.88
64858;SHT30;51335;51.148;6.950;2023-01-24T02:49:54;2.86;85.06
64858;SHT30;51335;51.148;6.950;2023-01-24T02:50:28;2.83;85.23
64858;SHT30;51335;51.148;6.950;2023-01-24T02:50:58;2.83;85.49
64858;SHT30;51335;51.148;6.950;2023-01-24T02:51:28;2.81;85.56
64858;SHT30;51335;51.148;6.950;2023-01-24T02:51:59;2.83;85.69
64858;SHT30;51335;51.148;6.950;2023-01-24T02:52:29;2.86;85.41
64858;SHT30;51335;51.148;6.950;2023-01-24T02:52:59;2.84;85.26
64858;SHT30;51335;51.148;6.950;2023-01-24T02:53:29;2.84;85.25
64858;SHT30;51335;51.148;6.950;2023-01-24T02:54:00;2.84;85.36
64858;SHT30;51335;51.148;6.950;2023-01-24T02:54:30;2.80;85.36
64858;SHT30;51335;51.148;6.950;2023-01-24T02:55:00;2.76;85.56
64858;SHT30;51335;51.148;6.950;2023-01-24T02:55:31;2.79;85.64
64858;SHT30;51335;51.148;6.950;2023-01-24T02:56:04;2.81;85.72
64858;SHT30;51335;51.148;6.950;2023-01-24T02:56:34;2.79;85.54
64858;SHT30;51335;51.148;6.950;2023-01-24T02:57:05;2.76;85.53
64858;SHT30;51335;51.148;6.950;2023-01-24T02:57:36;2.77;85.56
64858;SHT30;51335;51.148;6.950;2023-01-24T02:58:06;2.83;85.56
64858;SHT30;51335;51.148;6.950;2023-01-24T02:58:36;2.81;85.39
64858;SHT30;51335;51.148;6.950;2023-01-24T02:59:06;2.77;85.31
64858;SHT30;51335;51.148;6.950;2023-01-24T02:59:37;2.77;85.43
64858;SHT30;51335;51.148;6.950;2023-01-24T03:00:08;2.73;85.54
64858;SHT30;51335;51.148;6.950;2023-01-24T03:00:42;2.81;85.70
64858;SHT30;51335;51.148;6.950;2023-01-24T03:01:13;2.94;85.40
64858;SHT30;51335;51.148;6.950;2023-01-24T03:01:43;2.96;84.86
64858;SHT30;51335;51.148;6.950;2023-01-24T03:02:14;3.08;84.54
64858;SHT30;51335;51.148;6.950;2023-01-24T03:02:44;3.01;83.99
64858;SHT30;51335;51.148;6.950;2023-01-24T03:03:14;3.07;84.01
64858;SHT30;51335;51.148;6.950;2023-01-24T03:03:46;3.08;84.02
64858;SHT30;51335;51.148;6.950;2023-01-24T03:04:16;3.05;83.80
64858;SHT30;51335;51.148;6.950;2023-01-24T03:04:47;3.01;83.98
64858;SHT30;51335;51.148;6.950;2023-01-24T03:05:17;3.00;84.31
64858;SHT30;51335;51.148;6.950;2023-01-24T03:05:48;2.96;84.20
64858;SHT30;51335;51.148;6.950;2023-01-24T03:06:18;2.90;84.34
64858;SHT30;51335;51.148;6.950;2023-01-24T03:06:48;2.91;84.67
64858;SHT30;51335;51.148;6.950;2023-01-24T03:07:19;2.93;84.79
64858;SHT30;51335;51.148;6.950;2023-01-24T03:07:49;2.96;84.34
64858;SHT30;51335;51.148;6.950;2023-01-24T03:08:20;2.97;84.32
64858;SHT30;51335;51.148;6.950;2023-01-24T03:08:50;2.94;84.31
64858;SHT30;51335;51.148;6.950;2023-01-24T03:09:20;3.00;84.44
64858;SHT30;51335;51.148;6.950;2023-01-24T03:09:51;2.97;84.11
64858;SHT30;51335;51.148;6.950;2023-01-24T03:10:21;2.93;84.21
64858;SHT30;51335;51.148;6.950;2023-01-24T03:10:52;2.90;84.33
64858;SHT30;51335;51.148;6.950;2023-01-24T03:11:22;2.86;84.47
64858;SHT30;51335;51.148;6.950;2023-01-24T03:11:52;2.81;84.61
64858;SHT30;51335;51.148;6.950;2023-01-24T03:12:23;2.83;84.78
64858;SHT30;51335;51.148;6.950;2023-01-24T03:12:53;2.84;84.88
64858;SHT30;51335;51.148;6.950;2023-01-24T03:13:24;2.84;84.50
64858;SHT30;51335;51.148;6.950;2023-01-24T03:13:54;2.84;84.34
64858;SHT30;51335;51.148;6.950;2023-01-24T03:14:24;2.81;84.37
64858;SHT30;51335;51.148;6.950;2023-01-24T03:14:55;2.76;84.57
64858;SHT30;51335;51.148;6.950;2023-01-24T03:15:25;2.80;84.65
64858;SHT30;51335;51.148;6.950;2023-01-24T03:15:59;2.74;84.62
64858;SHT30;51335;51.148;6.950;2023-01-24T03:16:29;2.79;84.64
64858;SHT30;51335;51.148;6.950;2023-01-24T03:17:00;2.88;84.49
64858;SHT30;51335;51.148;6.950;2023-01-24T03:17:30;2.94;84.24
64858;SHT30;51335;51.148;6.950;2023-01-24T03:18:01;2.97;84.12
64858;SHT30;51335;51.148;6.950;2023-01-24T03:18:31;2.98;84.01
64858;SHT30;51335;51.148;6.950;2023-01-24T03:19:02;2.97;83.86
64858;SHT30;51335;51.148;6.950;2023-01-24T03:19:32;2.93;83.79
64858;SHT30;51335;51.148;6.950;2023-01-24T03:20:02;2.88;84.05
64858;SHT30;51335;51.148;6.950;2023-01-24T03:20:33;2.91;84.33
64858;SHT30;51335;51.148;6.950;2023-01-24T03:21:03;2.94;84.35
64858;SHT30;51335;51.148;6.950;2023-01-24T03:21:34;2.90;84.15
64858;SHT30;51335;51.148;6.950;2023-01-24T03:22:04;2.86;84.31
64858;SHT30;51335;51.148;6.950;2023-01-24T03:22:35;2.83;84.42
64858;SHT30;51335;51.148;6.950;2023-01-24T03:23:05;2.79;84.59
64858;SHT30;51335;51.148;6.950;2023-01-24T03:23:35;2.72;84.80
64858;SHT30;51335;51.148;6.950;2023-01-24T03:24:07;2.76;85.04
64858;SHT30;51335;51.148;6.950;2023-01-24T03:24:37;2.76;85.12
64858;SHT30;51335;51.148;6.950;2023-01-24T03:25:08;2.77;85.02
64858;SHT30;51335;51.148;6.950;2023-01-24T03:25:38;2.76;84.94
64858;SHT30;51335;51.148;6.950;2023-01-24T03:26:08;2.74;84.96
64858;SHT30;51335;51.148;6.950;2023-01-24T03:26:38;2.72;85.11
64858;SHT30;51335;51.148;6.950;2023-01-24T03:27:09;2.70;85.25
64858;SHT30;51335;51.148;6.950;2023-01-24T03:27:39;2.70;85.33
64858;SHT30;51335;51.148;6.950;2023-01-24T03:28:09;2.73;85.43
64858;SHT30;51335;51.148;6.950;2023-01-24T03:28:40;2.73;85.23
64858;SHT30;51335;51.148;6.950;2023-01-24T03:29:10;2.83;84.94
64858;SHT30;51335;51.148;6.950;2023-01-24T03:29:41;2.83;84.80
64858;SHT30;51335;51.148;6.950;2023-01-24T03:30:11;2.80;84.63
64858;SHT30;51335;51.148;6.950;2023-01-24T03:30:41;2.83;84.75
64858;SHT30;51335;51.148;6.950;2023-01-24T03:31:12;2.83;84.66
64858;SHT30;51335;51.148;6.950;2023-01-24T03:31:42;2.83;84.54
64858;SHT30;51335;51.148;6.950;2023-01-24T03:32:12;2.81;84.44
64858;SHT30;51335;51.148;6.950;2023-01-24T03:32:43;2.74;84.55
64858;SHT30;51335;51.148;6.950;2023-01-24T03:33:13;2.76;84.77
64858;SHT30;51335;51.148;6.950;2023-01-24T03:33:44;2.72;84.81